createdAt,value
2023-05-02T00:05:20.663Z,6.10
2023-05-02T00:08:23.045Z,6.10
2023-05-02T00:11:25.618Z,6.10
2023-05-02T00:14:27.819Z,6.10
2023-05-02T00:17:30.430Z,6.12
2023-05-02T00:20:32.836Z,6.11
2023-05-02T00:23:35.040Z,6.10
2023-05-02T00:26:37.480Z,6.09
2023-05-02T00:29:40.943Z,6.09
2023-05-02T00:32:43.991Z,6.09
2023-05-02T00:35:45.951Z,6.10
2023-05-02T00:38:48.625Z,6.08
2023-05-02T00:41:59.935Z,6.06
2023-05-02T00:45:05.824Z,6.03
2023-05-02T00:48:09.301Z,6.02
2023-05-02T00:51:13.176Z,6.02
2023-05-02T00:54:15.937Z,6.01
2023-05-02T00:57:18.338Z,5.99
2023-05-02T01:00:21.854Z,5.98
2023-05-02T01:03:42.337Z,5.97
2023-05-02T01:06:59.159Z,5.95
2023-05-02T01:10:20.476Z,5.92
2023-05-02T01:13:33.936Z,5.90
2023-05-02T01:16:40.362Z,5.89
2023-05-02T01:19:48.991Z,5.88
2023-05-02T01:22:52.500Z,5.86
2023-05-02T01:26:33.675Z,5.83
2023-05-02T01:29:38.693Z,5.81
2023-05-02T01:32:45.259Z,5.80
2023-05-02T01:35:51.557Z,5.78
2023-05-02T01:38:56.590Z,5.77
2023-05-02T01:42:02.243Z,5.77
2023-05-02T01:45:07.640Z,5.75
2023-05-02T01:48:11.604Z,5.73
2023-05-02T01:51:18.392Z,5.71
2023-05-02T01:54:24.238Z,5.69
2023-05-02T01:57:27.133Z,5.69
2023-05-02T02:00:29.812Z,5.69
2023-05-02T02:05:06.270Z,5.67
2023-05-02T02:08:08.979Z,5.68
2023-05-02T02:11:16.988Z,5.64
2023-05-02T02:14:22.918Z,5.60
2023-05-02T02:17:30.292Z,5.58
2023-05-02T02:20:33.128Z,5.56
2023-05-02T02:23:38.639Z,5.55
2023-05-02T02:26:41.452Z,5.57
2023-05-02T02:29:44.183Z,5.55
2023-05-02T02:32:48.114Z,5.54
2023-05-02T02:35:58.330Z,5.53
2023-05-02T02:39:27.312Z,5.52
2023-05-02T02:42:56.434Z,5.51
2023-05-02T02:46:17.547Z,5.51
2023-05-02T02:49:38.125Z,5.54
2023-05-02T02:52:53.907Z,5.56
2023-05-02T02:56:06.958Z,5.57
2023-05-02T02:59:29.802Z,5.60
2023-05-02T03:02:34.141Z,5.64
2023-05-02T03:05:36.597Z,5.67
2023-05-02T03:08:43.284Z,5.72
2023-05-02T03:11:47.489Z,5.77
2023-05-02T03:14:51.294Z,5.83
2023-05-02T03:17:53.723Z,5.88
2023-05-02T03:20:57.799Z,5.95
2023-05-02T03:24:01.191Z,6.01
2023-05-02T03:27:04.864Z,6.07
2023-05-02T03:30:11.060Z,6.14
2023-05-02T03:33:13.134Z,6.23
2023-05-02T03:36:16.532Z,6.33
2023-05-02T03:39:19.278Z,6.43
2023-05-02T03:42:22.373Z,6.51
2023-05-02T03:45:24.358Z,6.60
2023-05-02T03:48:28.273Z,6.71
2023-05-02T03:51:31.046Z,6.83
2023-05-02T03:54:34.289Z,6.97
2023-05-02T03:57:36.786Z,7.09
2023-05-02T04:00:40.435Z,7.18
2023-05-02T04:05:03.250Z,7.31
2023-05-02T04:08:06.547Z,7.42
2023-05-02T04:11:09.256Z,7.52
2023-05-02T04:14:11.764Z,7.62
2023-05-02T04:17:16.415Z,7.73
2023-05-02T04:20:24.094Z,7.84
2023-05-02T04:23:28.390Z,7.95
2023-05-02T04:26:34.681Z,8.06
2023-05-02T04:29:41.769Z,8.17
2023-05-02T04:32:44.717Z,8.27
2023-05-02T04:35:47.645Z,8.37
2023-05-02T04:38:51.423Z,8.45
2023-05-02T04:41:54.611Z,8.54
2023-05-02T04:44:58.469Z,8.63
2023-05-02T04:48:01.088Z,8.71
2023-05-02T04:51:03.554Z,8.78
2023-05-02T04:54:06.808Z,8.86
2023-05-02T04:57:10.580Z,8.94
2023-05-02T05:00:17.305Z,9.01
2023-05-02T05:03:20.118Z,9.07
2023-05-02T05:06:23.228Z,9.15
2023-05-02T05:09:26.407Z,9.22
2023-05-02T05:12:29.166Z,9.29
2023-05-02T05:15:31.592Z,9.37
2023-05-02T05:18:42.096Z,9.43
2023-05-02T05:21:47.051Z,9.48
2023-05-02T05:24:54.575Z,9.54
2023-05-02T05:28:02.001Z,9.61
2023-05-02T05:31:07.644Z,9.68
2023-05-02T05:34:10.385Z,9.76
2023-05-02T05:37:12.836Z,9.83
2023-05-02T05:40:17.168Z,9.89
2023-05-02T05:43:23.226Z,9.96
2023-05-02T05:46:26.133Z,10.05
2023-05-02T05:49:29.527Z,10.14
2023-05-02T05:52:31.672Z,10.24
2023-05-02T05:55:37.440Z,10.33
2023-05-02T05:58:40.848Z,10.42
2023-05-02T06:05:19.824Z,10.60
2023-05-02T06:08:22.174Z,10.70
2023-05-02T06:11:24.261Z,10.78
2023-05-02T06:14:26.544Z,10.86
2023-05-02T06:17:28.860Z,10.93
2023-05-02T06:20:30.954Z,11.02
2023-05-02T06:23:34.032Z,11.09
2023-05-02T06:26:36.459Z,11.18
2023-05-02T06:29:38.790Z,11.27
2023-05-02T06:32:43.666Z,11.35
2023-05-02T06:35:51.131Z,11.43
2023-05-02T06:38:53.235Z,11.51
2023-05-02T06:41:58.378Z,11.58
2023-05-02T06:45:01.679Z,11.65
2023-05-02T06:48:04.054Z,11.73
2023-05-02T06:51:06.607Z,11.80
2023-05-02T06:54:08.849Z,11.88
2023-05-02T06:57:11.121Z,11.98
2023-05-02T07:00:14.511Z,12.09
2023-05-02T07:03:16.754Z,12.23
2023-05-02T07:06:19.149Z,12.37
2023-05-02T07:09:21.455Z,12.50
2023-05-02T07:12:23.446Z,12.62
2023-05-02T07:15:26.607Z,12.76
2023-05-02T07:27:27.921Z,13.35
2023-05-02T07:30:30.102Z,13.47
2023-05-02T07:33:32.071Z,13.59
2023-05-02T07:36:34.332Z,13.73
2023-05-02T07:39:36.516Z,13.86
2023-05-02T07:42:39.700Z,13.96
2023-05-02T07:45:42.130Z,14.10
2023-05-02T07:48:44.705Z,14.25
2023-05-02T07:51:48.429Z,14.38
2023-05-02T07:54:51.571Z,14.46
2023-05-02T07:57:54.444Z,14.60
2023-05-02T08:00:58.054Z,14.70
2023-05-02T08:04:00.487Z,14.81
2023-05-02T08:07:03.430Z,14.87
2023-05-02T08:10:09.584Z,14.94
2023-05-02T08:13:12.517Z,15.01
2023-05-02T08:16:15.968Z,15.01
2023-05-02T08:19:18.257Z,15.07
2023-05-02T08:22:20.300Z,15.21
2023-05-02T08:25:22.416Z,15.34
2023-05-02T08:28:24.437Z,15.41
2023-05-02T08:31:26.612Z,15.46
2023-05-02T08:34:28.671Z,15.51
2023-05-02T08:37:32.581Z,15.62
2023-05-02T08:40:42.089Z,15.67
2023-05-02T08:43:46.849Z,15.72
2023-05-02T08:46:51.950Z,15.82
2023-05-02T08:49:56.791Z,15.88
2023-05-02T08:52:59.952Z,16.00
2023-05-02T08:56:02.393Z,16.15
2023-05-02T08:59:04.631Z,16.16
2023-05-02T09:02:24.401Z,16.12
2023-05-02T09:05:26.711Z,16.09
2023-05-02T09:08:28.809Z,16.00
2023-05-02T09:11:30.868Z,16.00
2023-05-02T09:14:33.163Z,16.09
2023-05-02T09:17:43.462Z,16.19
2023-05-02T09:20:46.017Z,16.31
2023-05-02T09:23:50.503Z,16.44
2023-05-02T09:27:05.831Z,16.58
2023-05-02T09:30:28.632Z,16.75
2023-05-02T09:33:32.026Z,16.86
2023-05-02T09:36:58.598Z,16.97
2023-05-02T09:40:09.694Z,17.10
2023-05-02T09:43:16.975Z,17.21
2023-05-02T09:46:19.170Z,17.27
2023-05-02T09:49:41.563Z,17.31
2023-05-02T09:53:01.496Z,17.17
2023-05-02T09:56:04.882Z,17.14
2023-05-02T09:59:17.668Z,17.24
2023-05-02T10:05:03.207Z,17.43
2023-05-02T10:08:07.955Z,17.44
2023-05-02T10:11:10.722Z,17.48
2023-05-02T10:14:15.530Z,17.59
2023-05-02T10:17:31.331Z,17.74
2023-05-02T10:20:38.085Z,17.69
2023-05-02T10:23:44.695Z,17.68
2023-05-02T10:26:48.547Z,17.86
2023-05-02T10:29:51.762Z,17.84
2023-05-02T10:32:57.185Z,17.97
2023-05-02T10:36:00.134Z,18.16
2023-05-02T14:05:04.066Z,26.89
2023-05-02T14:08:06.371Z,27.70
2023-05-02T14:11:08.504Z,28.30
2023-05-02T14:14:12.750Z,28.98
2023-05-02T14:17:15.133Z,29.75
2023-05-02T14:20:17.176Z,29.25
2023-05-02T14:23:19.348Z,28.34
2023-05-02T14:26:21.425Z,27.95
2023-05-02T14:29:23.478Z,28.48
2023-05-02T14:32:25.550Z,29.22
2023-05-02T14:35:27.712Z,29.07
2023-05-02T14:38:29.793Z,28.18
2023-05-02T14:41:31.857Z,27.66
2023-05-02T14:44:33.833Z,27.53
2023-05-02T14:47:36.722Z,27.95
2023-05-02T14:50:39.806Z,28.32
2023-05-02T14:53:42.169Z,28.63
2023-05-02T14:56:44.750Z,28.95
2023-05-02T14:59:47.032Z,28.78
2023-05-02T15:02:49.193Z,28.49
2023-05-02T15:05:51.363Z,28.18
2023-05-02T15:08:53.569Z,27.81
2023-05-02T15:11:57.167Z,27.77
2023-05-02T15:14:59.312Z,27.96
2023-05-02T15:18:01.616Z,28.33
2023-05-02T15:21:04.215Z,28.76
2023-05-02T15:24:07.006Z,29.24
2023-05-02T15:27:09.949Z,29.74
2023-05-02T15:30:12.924Z,29.83
2023-05-02T15:33:16.342Z,29.70
2023-05-02T15:36:19.272Z,29.24
2023-05-02T15:39:22.870Z,29.13
2023-05-02T15:42:24.885Z,29.19
2023-05-02T15:45:26.949Z,29.27
2023-05-02T15:48:30.863Z,29.57
2023-05-02T15:51:32.830Z,29.68
2023-05-02T15:54:35.305Z,28.82
2023-05-02T15:57:37.649Z,27.93
2023-05-02T16:00:39.745Z,27.59
2023-05-02T16:03:42.244Z,27.76
2023-05-02T16:06:44.721Z,28.10
2023-05-02T16:09:47.180Z,28.45
2023-05-02T16:12:49.254Z,28.48
2023-05-02T16:15:54.422Z,28.38
2023-05-02T16:18:56.674Z,28.26
2023-05-02T16:21:58.948Z,28.15
2023-05-02T16:25:01.220Z,27.97
2023-05-02T16:28:03.393Z,27.64
2023-05-02T16:31:07.781Z,27.21
2023-05-02T16:34:10.098Z,26.41
2023-05-02T16:37:12.375Z,25.37
2023-05-02T16:40:14.761Z,24.48
2023-05-02T16:43:17.463Z,23.70
2023-05-02T16:46:19.714Z,23.16
2023-05-02T16:49:22.224Z,22.68
2023-05-02T16:52:24.796Z,22.13
2023-05-02T16:55:26.838Z,21.67
2023-05-02T16:58:29.340Z,21.21
2023-05-02T17:01:31.415Z,20.82
2023-05-02T17:04:33.414Z,20.47
2023-05-02T17:07:35.586Z,20.07
2023-05-02T17:10:37.856Z,19.72
2023-05-02T17:13:40.335Z,19.40
2023-05-02T17:16:42.491Z,19.09
2023-05-02T17:19:44.781Z,18.79
2023-05-02T17:22:47.677Z,18.45
2023-05-02T17:25:50.071Z,18.16
2023-05-02T17:28:53.924Z,17.91
2023-05-02T17:32:00.960Z,17.71
2023-05-02T17:35:03.466Z,17.50
2023-05-02T17:38:05.748Z,17.29
2023-05-02T17:41:08.280Z,17.12
2023-05-02T17:44:10.336Z,16.95
2023-05-02T17:47:13.465Z,16.80
2023-05-02T17:50:15.959Z,16.65
2023-05-02T17:53:18.247Z,16.53
2023-05-02T17:56:20.462Z,16.40
2023-05-02T17:59:23.088Z,16.30
2023-05-02T18:05:04.224Z,16.09
2023-05-02T18:08:10.710Z,16.01
2023-05-02T18:11:17.902Z,15.91
2023-05-02T18:14:20.183Z,15.82
2023-05-02T18:17:23.222Z,15.73
2023-05-02T18:20:25.851Z,15.65
2023-05-02T18:23:28.226Z,15.57
2023-05-02T18:26:30.283Z,15.49
2023-05-02T18:29:36.652Z,15.39
2023-05-02T18:32:38.741Z,15.32
2023-05-02T18:35:50.487Z,15.25
2023-05-02T18:38:52.771Z,15.19
2023-05-02T18:41:54.961Z,15.14
2023-05-02T18:44:56.995Z,15.05
2023-05-02T18:47:59.986Z,14.98
2023-05-02T18:51:03.123Z,14.91
2023-05-02T18:54:05.495Z,14.86
2023-05-02T18:57:08.276Z,14.81
2023-05-02T19:00:11.909Z,14.74
2023-05-02T19:03:14.418Z,14.68
2023-05-02T19:06:19.515Z,14.63
2023-05-02T19:09:22.020Z,14.56
2023-05-02T19:12:24.355Z,14.49
2023-05-02T19:15:27.856Z,14.42
2023-05-02T19:18:30.033Z,14.38
2023-05-02T19:21:34.272Z,14.32
2023-05-02T19:24:36.725Z,14.26
2023-05-02T19:27:44.204Z,14.19
2023-05-02T19:30:46.197Z,14.13
2023-05-02T19:33:55.151Z,14.08
2023-05-02T19:36:57.206Z,14.03
2023-05-02T19:39:59.568Z,13.95
2023-05-02T19:57:26.185Z,13.70
2023-05-02T20:00:28.767Z,13.66
2023-05-02T20:03:31.150Z,13.64
2023-05-02T20:06:33.668Z,13.60
2023-05-02T20:09:36.134Z,13.60
2023-05-02T20:12:38.993Z,13.55
2023-05-02T20:15:41.586Z,13.49
2023-05-02T20:18:43.686Z,13.44
2023-05-02T20:21:46.180Z,13.37
2023-05-02T20:24:48.286Z,13.28
2023-05-02T20:27:51.491Z,13.19
2023-05-02T20:30:53.513Z,13.11
2023-05-02T20:33:56.000Z,13.04
2023-05-02T20:36:58.173Z,12.96
2023-05-02T20:40:01.371Z,12.91
2023-05-02T20:43:05.351Z,12.88
2023-05-02T20:46:11.918Z,12.83
2023-05-02T20:49:14.667Z,12.79
2023-05-02T20:52:17.131Z,12.76
2023-05-02T20:55:22.409Z,12.72
2023-05-02T20:58:24.867Z,12.67
2023-05-02T21:01:27.367Z,12.62
2023-05-02T21:04:29.743Z,12.57
2023-05-02T21:07:31.915Z,12.52
2023-05-02T21:10:34.091Z,12.48
2023-05-02T21:13:36.274Z,12.42
2023-05-02T21:16:39.644Z,12.37
2023-05-02T21:19:41.648Z,12.32
2023-05-02T21:22:43.570Z,12.26
2023-05-02T21:25:45.618Z,12.19
2023-05-02T21:28:47.613Z,12.13
2023-05-02T21:31:49.971Z,12.09
2023-05-02T21:34:52.957Z,12.05
2023-05-02T21:37:55.055Z,12.03
2023-05-02T21:41:01.283Z,11.98
2023-05-02T21:44:03.456Z,11.93
2023-05-02T21:47:05.663Z,11.92
2023-05-02T21:50:08.494Z,11.91
2023-05-02T21:53:11.116Z,11.90
2023-05-02T21:56:13.202Z,11.92
2023-05-02T21:59:15.347Z,11.94
2023-05-02T22:05:02.044Z,11.97
2023-05-02T22:08:04.226Z,12.03
2023-05-02T22:11:10.525Z,12.07
2023-05-02T22:14:12.602Z,12.09
2023-05-02T22:17:17.676Z,12.09
2023-05-02T22:20:19.817Z,12.09
2023-05-02T22:23:21.944Z,12.10
2023-05-02T22:26:24.128Z,12.11
2023-05-02T22:29:26.183Z,12.11
2023-05-02T22:32:28.203Z,12.11
2023-05-02T22:35:30.247Z,12.11
2023-05-02T22:38:32.187Z,12.10
2023-05-02T22:41:34.353Z,12.09
2023-05-02T22:44:50.671Z,12.09
2023-05-02T22:47:56.419Z,12.08
2023-05-02T22:50:58.691Z,12.08
2023-05-02T22:54:00.859Z,12.05
2023-05-02T22:57:03.338Z,12.02
2023-05-02T23:00:07.530Z,12.00
2023-05-02T23:03:11.191Z,11.98
2023-05-02T23:06:13.395Z,11.93
2023-05-02T23:09:15.372Z,11.88
2023-05-02T23:12:17.791Z,11.86
2023-05-02T23:15:19.851Z,11.86
2023-05-02T23:18:22.741Z,11.87
2023-05-02T23:21:24.908Z,11.87
2023-05-02T23:24:26.911Z,11.87
2023-05-02T23:27:29.133Z,11.87
2023-05-02T23:30:32.339Z,11.88
2023-05-02T23:33:34.699Z,11.88
2023-05-02T23:36:36.884Z,11.87
2023-05-02T23:39:38.964Z,11.87
2023-05-02T23:42:42.241Z,11.89
2023-05-02T23:45:45.938Z,11.90
2023-05-02T23:48:48.130Z,11.91
2023-05-02T23:51:50.205Z,11.90
2023-05-02T23:54:52.990Z,11.90
